sensor_id;sensor_type;location;lat;lon;timestamp;temperature;humidity
39655;DHT22;25336;59.944;11.010;2023-11-21T00:00:05;1.40;75.90
39655;DHT22;25336;59.944;11.010;2023-11-21T00:02:36;0.20;75.80
39655;DHT22;25336;59.944;11.010;2023-11-21T00:05:04;0.40;75.30
39655;DHT22;25336;59.944;11.010;2023-11-21T00:07:30;0.30;75.20
39655;DHT22;25336;59.944;11.010;2023-11-21T00:09:55;0.40;75.10
39655;DHT22;25336;59.944;11.010;2023-11-21T00:12:22;1.10;75.60
39655;DHT22;25336;59.944;11.010;2023-11-21T00:14:48;0.40;75.10
39655;DHT22;25336;59.944;11.010;2023-11-21T00:17:13;-0.70;74.40
39655;DHT22;25336;59.944;11.010;2023-11-21T00:19:39;0.80;75.30
39655;DHT22;25336;59.944;11.010;2023-11-21T00:22:05;0.40;75.00
39655;DHT22;25336;59.944;11.010;2023-11-21T00:24:31;0.70;75.20
39655;DHT22;25336;59.944;11.010;2023-11-21T00:26:57;1.60;75.70
39655;DHT22;25336;59.944;11.010;2023-11-21T00:29:23;0.80;75.10
39655;DHT22;25336;59.944;11.010;2023-11-21T00:31:48;0.40;74.80
39655;DHT22;25336;59.944;11.010;2023-11-21T00:34:14;1.20;75.20
39655;DHT22;25336;59.944;11.010;2023-11-21T00:36:40;0.40;74.70
39655;DHT22;25336;59.944;11.010;2023-11-21T00:39:05;0.50;74.80
39655;DHT22;25336;59.944;11.010;2023-11-21T00:41:32;0.70;74.90
39655;DHT22;25336;59.944;11.010;2023-11-21T00:43:57;0.90;75.00
39655;DHT22;25336;59.944;11.010;2023-11-21T00:46:24;0.40;74.80
39655;DHT22;25336;59.944;11.010;2023-11-21T00:48:53;0.80;75.00
39655;DHT22;25336;59.944;11.010;2023-11-21T00:51:19;1.20;75.30
39655;DHT22;25336;59.944;11.010;2023-11-21T00:53:45;1.40;75.40
39655;DHT22;25336;59.944;11.010;2023-11-21T00:56:12;0.40;74.80
39655;DHT22;25336;59.944;11.010;2023-11-21T00:58:38;1.20;75.40
39655;DHT22;25336;59.944;11.010;2023-11-21T01:01:04;1.20;75.30
39655;DHT22;25336;59.944;11.010;2023-11-21T01:03:30;0.40;74.90
39655;DHT22;25336;59.944;11.010;2023-11-21T01:05:56;1.40;75.50
39655;DHT22;25336;59.944;11.010;2023-11-21T01:08:21;1.20;75.30
39655;DHT22;25336;59.944;11.010;2023-11-21T01:10:49;0.40;74.90
39655;DHT22;25336;59.944;11.010;2023-11-21T01:13:15;0.70;75.00
39655;DHT22;25336;59.944;11.010;2023-11-21T01:15:41;0.50;74.90
39655;DHT22;25336;59.944;11.010;2023-11-21T01:18:07;0.50;74.80
39655;DHT22;25336;59.944;11.010;2023-11-21T01:20:34;1.10;75.20
39655;DHT22;25336;59.944;11.010;2023-11-21T01:23:00;0.80;75.70
39655;DHT22;25336;59.944;11.010;2023-11-21T01:25:26;0.60;74.80
39655;DHT22;25336;59.944;11.010;2023-11-21T01:27:52;0.60;74.80
39655;DHT22;25336;59.944;11.010;2023-11-21T01:30:18;0.60;74.70
39655;DHT22;25336;59.944;11.010;2023-11-21T01:32:44;0.60;74.60
39655;DHT22;25336;59.944;11.010;2023-11-21T01:35:10;1.80;75.30
39655;DHT22;25336;59.944;11.010;2023-11-21T01:37:36;0.70;74.60
39655;DHT22;25336;59.944;11.010;2023-11-21T01:40:03;0.70;74.50
39655;DHT22;25336;59.944;11.010;2023-11-21T01:42:31;0.70;74.40
39655;DHT22;25336;59.944;11.010;2023-11-21T01:44:57;0.70;74.20
39655;DHT22;25336;59.944;11.010;2023-11-21T01:47:22;2.00;74.90
39655;DHT22;25336;59.944;11.010;2023-11-21T01:49:48;0.70;74.00
39655;DHT22;25336;59.944;11.010;2023-11-21T01:52:14;1.30;74.30
39655;DHT22;25336;59.944;11.010;2023-11-21T01:54:41;0.70;73.80
39655;DHT22;25336;59.944;11.010;2023-11-21T01:57:07;1.30;74.20
39655;DHT22;25336;59.944;11.010;2023-11-21T01:59:37;1.00;73.80
39655;DHT22;25336;59.944;11.010;2023-11-21T02:02:04;0.60;73.50
39655;DHT22;25336;59.944;11.010;2023-11-21T02:04:33;0.50;73.40
39655;DHT22;25336;59.944;11.010;2023-11-21T02:07:00;0.50;73.30
39655;DHT22;25336;59.944;11.010;2023-11-21T02:09:27;0.50;73.40
39655;DHT22;25336;59.944;11.010;2023-11-21T02:11:53;0.50;73.30
39655;DHT22;25336;59.944;11.010;2023-11-21T02:14:20;1.30;74.00
39655;DHT22;25336;59.944;11.010;2023-11-21T02:16:50;0.40;73.30
39655;DHT22;25336;59.944;11.010;2023-11-21T02:19:20;1.20;73.80
39655;DHT22;25336;59.944;11.010;2023-11-21T02:21:52;0.70;73.50
39655;DHT22;25336;59.944;11.010;2023-11-21T02:24:21;1.00;73.80
39655;DHT22;25336;59.944;11.010;2023-11-21T02:26:50;0.30;73.40
39655;DHT22;25336;59.944;11.010;2023-11-21T02:29:18;0.30;73.50
39655;DHT22;25336;59.944;11.010;2023-11-21T02:31:48;0.30;73.50
39655;DHT22;25336;59.944;11.010;2023-11-21T02:34:17;1.30;74.20
39655;DHT22;25336;59.944;11.010;2023-11-21T02:36:44;1.20;74.10
39655;DHT22;25336;59.944;11.010;2023-11-21T02:39:10;1.30;74.20
39655;DHT22;25336;59.944;11.010;2023-11-21T02:41:37;1.10;74.10
39655;DHT22;25336;59.944;11.010;2023-11-21T02:44:05;1.40;74.30
39655;DHT22;25336;59.944;11.010;2023-11-21T02:46:32;0.40;73.70
39655;DHT22;25336;59.944;11.010;2023-11-21T02:49:00;0.70;73.90
39655;DHT22;25336;59.944;11.010;2023-11-21T02:51:26;0.40;73.70
39655;DHT22;25336;59.944;11.010;2023-11-21T02:53:51;0.40;73.70
39655;DHT22;25336;59.944;11.010;2023-11-21T02:56:17;0.60;73.90
39655;DHT22;25336;59.944;11.010;2023-11-21T02:58:44;0.50;73.90
39655;DHT22;25336;59.944;11.010;2023-11-21T03:01:10;0.50;73.80
39655;DHT22;25336;59.944;11.010;2023-11-21T03:03:37;0.70;73.90
39655;DHT22;25336;59.944;11.010;2023-11-21T03:06:08;0.90;74.90
39655;DHT22;25336;59.944;11.010;2023-11-21T03:08:34;0.60;73.90
39655;DHT22;25336;59.944;11.010;2023-11-21T03:11:00;1.50;74.40
39655;DHT22;25336;59.944;11.010;2023-11-21T03:13:25;1.00;74.10
39655;DHT22;25336;59.944;11.010;2023-11-21T03:15:51;0.60;73.80
39655;DHT22;25336;59.944;11.010;2023-11-21T03:18:17;0.60;73.70
39655;DHT22;25336;59.944;11.010;2023-11-21T03:20:46;1.10;74.00
39655;DHT22;25336;59.944;11.010;2023-11-21T03:23:12;1.00;73.90
39655;DHT22;25336;59.944;11.010;2023-11-21T03:25:37;1.20;74.00
39655;DHT22;25336;59.944;11.010;2023-11-21T03:28:03;1.60;74.30
39655;DHT22;25336;59.944;11.010;2023-11-21T03:30:29;0.70;73.60
39655;DHT22;25336;59.944;11.010;2023-11-21T03:32:55;0.70;73.50
39655;DHT22;25336;59.944;11.010;2023-11-21T03:35:20;0.70;73.50
39655;DHT22;25336;59.944;11.010;2023-11-21T03:37:47;0.70;73.40
39655;DHT22;25336;59.944;11.010;2023-11-21T03:40:13;1.30;73.80
39655;DHT22;25336;59.944;11.010;2023-11-21T03:42:39;0.70;73.40
39655;DHT22;25336;59.944;11.010;2023-11-21T03:45:06;1.30;73.70
39655;DHT22;25336;59.944;11.010;2023-11-21T03:47:32;0.70;73.30
39655;DHT22;25336;59.944;11.010;2023-11-21T03:49:57;1.80;73.90
39655;DHT22;25336;59.944;11.010;2023-11-21T03:52:24;0.90;73.40
39655;DHT22;25336;59.944;11.010;2023-11-21T03:54:50;1.70;73.90
39655;DHT22;25336;59.944;11.010;2023-11-21T03:57:15;0.60;73.10
39655;DHT22;25336;59.944;11.010;2023-11-21T03:59:42;1.40;73.70
39655;DHT22;25336;59.944;11.010;2023-11-21T04:02:08;1.20;73.40
39655;DHT22;25336;59.944;11.010;2023-11-21T04:04:35;1.00;73.20
39655;DHT22;25336;59.944;11.010;2023-11-21T04:07:01;0.50;72.90
39655;DHT22;25336;59.944;11.010;2023-11-21T04:09:26;0.70;73.00
39655;DHT22;25336;59.944;11.010;2023-11-21T04:11:52;0.40;72.70
39655;DHT22;25336;59.944;11.010;2023-11-21T04:14:18;0.30;72.60
39655;DHT22;25336;59.944;11.010;2023-11-21T04:16:44;0.30;72.50
39655;DHT22;25336;59.944;11.010;2023-11-21T04:19:10;0.20;72.40
39655;DHT22;25336;59.944;11.010;2023-11-21T04:21:37;1.40;73.20
39655;DHT22;25336;59.944;11.010;2023-11-21T04:24:03;0.10;72.30
39655;DHT22;25336;59.944;11.010;2023-11-21T04:26:28;0.10;72.30
39655;DHT22;25336;59.944;11.010;2023-11-21T04:28:54;1.20;73.00
39655;DHT22;25336;59.944;11.010;2023-11-21T04:31:20;1.30;73.10
39655;DHT22;25336;59.944;11.010;2023-11-21T04:33:45;0.40;72.50
39655;DHT22;25336;59.944;11.010;2023-11-21T04:36:11;-0.10;72.30
39655;DHT22;25336;59.944;11.010;2023-11-21T04:38:37;0.80;73.00
39655;DHT22;25336;59.944;11.010;2023-11-21T04:41:03;-0.20;72.40
39655;DHT22;25336;59.944;11.010;2023-11-21T04:43:29;-0.20;72.50
39655;DHT22;25336;59.944;11.010;2023-11-21T04:45:55;0.30;73.00
39655;DHT22;25336;59.944;11.010;2023-11-21T04:48:21;0.00;72.70
39655;DHT22;25336;59.944;11.010;2023-11-21T04:50:46;0.20;73.00
39655;DHT22;25336;59.944;11.010;2023-11-21T04:53:12;-0.30;72.70
39655;DHT22;25336;59.944;11.010;2023-11-21T04:55:40;0.80;73.40
39655;DHT22;25336;59.944;11.010;2023-11-21T04:58:07;-0.40;72.70
39655;DHT22;25336;59.944;11.010;2023-11-21T05:00:34;0.40;73.20
39655;DHT22;25336;59.944;11.010;2023-11-21T05:02:59;0.40;74.00
39655;DHT22;25336;59.944;11.010;2023-11-21T05:05:26;-0.50;72.70
39655;DHT22;25336;59.944;11.010;2023-11-21T05:07:52;-0.10;73.00
39655;DHT22;25336;59.944;11.010;2023-11-21T05:10:19;-0.10;73.00
39655;DHT22;25336;59.944;11.010;2023-11-21T05:12:45;-0.50;72.80
39655;DHT22;25336;59.944;11.010;2023-11-21T05:15:14;-0.60;72.70
39655;DHT22;25336;59.944;11.010;2023-11-21T05:17:41;-0.60;72.70
39655;DHT22;25336;59.944;11.010;2023-11-21T05:20:11;-0.70;72.70
39655;DHT22;25336;59.944;11.010;2023-11-21T05:22:39;-0.70;73.50
39655;DHT22;25336;59.944;11.010;2023-11-21T05:25:05;0.10;73.30
39655;DHT22;25336;59.944;11.010;2023-11-21T05:27:32;-0.70;72.70
39655;DHT22;25336;59.944;11.010;2023-11-21T05:29:58;-0.80;72.80
39655;DHT22;25336;59.944;11.010;2023-11-21T05:32:27;-0.80;72.80
39655;DHT22;25336;59.944;11.010;2023-11-21T05:34:53;-0.20;73.20
39655;DHT22;25336;59.944;11.010;2023-11-21T05:37:18;0.00;73.40
39655;DHT22;25336;59.944;11.010;2023-11-21T05:39:44;-0.80;72.90
39655;DHT22;25336;59.944;11.010;2023-11-21T05:42:10;-0.30;73.20
39655;DHT22;25336;59.944;11.010;2023-11-21T05:44:37;-0.90;72.80
39655;DHT22;25336;59.944;11.010;2023-11-21T05:47:03;-0.80;73.00
39655;DHT22;25336;59.944;11.010;2023-11-21T05:49:29;-0.90;72.90
39655;DHT22;25336;59.944;11.010;2023-11-21T05:51:56;-1.00;72.90
39655;DHT22;25336;59.944;11.010;2023-11-21T05:54:21;-0.30;73.40
39655;DHT22;25336;59.944;11.010;2023-11-21T05:56:48;-0.50;73.30
39655;DHT22;25336;59.944;11.010;2023-11-21T05:59:15;-0.30;73.40
39655;DHT22;25336;59.944;11.010;2023-11-21T06:01:40;-0.20;74.20
39655;DHT22;25336;59.944;11.010;2023-11-21T06:04:06;-1.10;72.80
39655;DHT22;25336;59.944;11.010;2023-11-21T06:06:33;-0.80;73.00
39655;DHT22;25336;59.944;11.010;2023-11-21T06:08:59;-1.10;72.80
39655;DHT22;25336;59.944;11.010;2023-11-21T06:11:25;-0.60;73.20
39655;DHT22;25336;59.944;11.010;2023-11-21T06:13:51;-1.20;72.80
39655;DHT22;25336;59.944;11.010;2023-11-21T06:16:19;-0.10;73.50
39655;DHT22;25336;59.944;11.010;2023-11-21T06:18:47;-0.30;73.50
39655;DHT22;25336;59.944;11.010;2023-11-21T06:21:13;-1.20;72.90
39655;DHT22;25336;59.944;11.010;2023-11-21T06:23:39;-1.30;72.80
39655;DHT22;25336;59.944;11.010;2023-11-21T06:26:05;-1.30;72.80
39655;DHT22;25336;59.944;11.010;2023-11-21T06:28:31;-1.30;72.80
39655;DHT22;25336;59.944;11.010;2023-11-21T06:30:57;-0.50;73.40
39655;DHT22;25336;59.944;11.010;2023-11-21T06:33:33;-0.40;73.50
39655;DHT22;25336;59.944;11.010;2023-11-21T06:35:59;-0.80;73.20
39655;DHT22;25336;59.944;11.010;2023-11-21T06:38:28;-1.40;72.90
39655;DHT22;25336;59.944;11.010;2023-11-21T06:40:56;-0.50;73.50
39655;DHT22;25336;59.944;11.010;2023-11-21T06:43:22;-1.40;73.00
39655;DHT22;25336;59.944;11.010;2023-11-21T06:45:48;-1.00;73.20
39655;DHT22;25336;59.944;11.010;2023-11-21T06:48:13;-1.50;72.90
39655;DHT22;25336;59.944;11.010;2023-11-21T06:50:40;-1.50;72.90
39655;DHT22;25336;59.944;11.010;2023-11-21T06:53:07;-1.50;72.90
39655;DHT22;25336;59.944;11.010;2023-11-21T06:55:33;-1.50;72.80
39655;DHT22;25336;59.944;11.010;2023-11-21T06:58:00;-0.90;73.20
39655;DHT22;25336;59.944;11.010;2023-11-21T07:00:27;-1.60;72.80
39655;DHT22;25336;59.944;11.010;2023-11-21T07:02:55;-1.60;72.80
39655;DHT22;25336;59.944;11.010;2023-11-21T07:05:21;-1.60;72.80
39655;DHT22;25336;59.944;11.010;2023-11-21T07:07:48;-1.60;72.90
39655;DHT22;25336;59.944;11.010;2023-11-21T07:10:14;-1.00;73.20
39655;DHT22;25336;59.944;11.010;2023-11-21T07:12:40;-0.80;73.40
39655;DHT22;25336;59.944;11.010;2023-11-21T07:15:07;-0.70;73.40
39655;DHT22;25336;59.944;11.010;2023-11-21T07:17:37;-1.70;72.90
39655;DHT22;25336;59.944;11.010;2023-11-21T07:20:03;-1.70;73.00
39655;DHT22;25336;59.944;11.010;2023-11-21T07:22:29;-1.70;73.10
39655;DHT22;25336;59.944;11.010;2023-11-21T07:24:55;-1.70;73.10
39655;DHT22;25336;59.944;11.010;2023-11-21T07:27:24;-0.80;73.80
39655;DHT22;25336;59.944;11.010;2023-11-21T07:29:49;-0.60;73.90
39655;DHT22;25336;59.944;11.010;2023-11-21T07:32:15;-1.80;73.20
39655;DHT22;25336;59.944;11.010;2023-11-21T07:34:41;-1.80;73.30
39655;DHT22;25336;59.944;11.010;2023-11-21T07:37:07;-0.60;74.10
39655;DHT22;25336;59.944;11.010;2023-11-21T07:39:35;-0.90;74.00
39655;DHT22;25336;59.944;11.010;2023-11-21T07:42:03;-0.70;74.10
39655;DHT22;25336;59.944;11.010;2023-11-21T07:44:29;-1.80;73.40
39655;DHT22;25336;59.944;11.010;2023-11-21T07:46:55;-1.80;73.40
39655;DHT22;25336;59.944;11.010;2023-11-21T07:49:26;-1.80;73.40
39655;DHT22;25336;59.944;11.010;2023-11-21T07:51:52;-1.90;73.30
39655;DHT22;25336;59.944;11.010;2023-11-21T07:54:18;-1.90;73.30
39655;DHT22;25336;59.944;11.010;2023-11-21T07:56:43;-1.90;73.30
39655;DHT22;25336;59.944;11.010;2023-11-21T07:59:10;-1.80;73.40
39655;DHT22;25336;59.944;11.010;2023-11-21T08:01:36;-1.00;74.00
39655;DHT22;25336;59.944;11.010;2023-11-21T08:04:02;-1.90;73.50
39655;DHT22;25336;59.944;11.010;2023-11-21T08:06:30;-1.90;73.60
39655;DHT22;25336;59.944;11.010;2023-11-21T08:08:56;-1.60;73.90
39655;DHT22;25336;59.944;11.010;2023-11-21T08:11:22;-1.90;73.90
39655;DHT22;25336;59.944;11.010;2023-11-21T08:13:48;-1.90;73.90
39655;DHT22;25336;59.944;11.010;2023-11-21T08:16:14;-1.40;74.30
39655;DHT22;25336;59.944;11.010;2023-11-21T08:18:41;-1.80;74.10
39655;DHT22;25336;59.944;11.010;2023-11-21T08:21:07;-0.90;74.80
39655;DHT22;25336;59.944;11.010;2023-11-21T08:23:33;-1.80;74.30
39655;DHT22;25336;59.944;11.010;2023-11-21T08:25:59;-1.80;74.40
39655;DHT22;25336;59.944;11.010;2023-11-21T08:28:25;-1.80;74.50
39655;DHT22;25336;59.944;11.010;2023-11-21T08:30:52;-1.40;74.90
39655;DHT22;25336;59.944;11.010;2023-11-21T08:33:18;-1.70;74.80
39655;DHT22;25336;59.944;11.010;2023-11-21T08:35:44;-1.30;75.20
39655;DHT22;25336;59.944;11.010;2023-11-21T08:38:11;-1.60;75.10
39655;DHT22;25336;59.944;11.010;2023-11-21T08:40:38;-1.60;75.20
39655;DHT22;25336;59.944;11.010;2023-11-21T08:43:03;-1.50;75.30
39655;DHT22;25336;59.944;11.010;2023-11-21T08:45:33;-1.50;75.50
39655;DHT22;25336;59.944;11.010;2023-11-21T08:48:00;-0.30;76.20
39655;DHT22;25336;59.944;11.010;2023-11-21T08:50:26;-1.40;75.80
39655;DHT22;25336;59.944;11.010;2023-11-21T08:52:52;-1.30;75.80
39655;DHT22;25336;59.944;11.010;2023-11-21T08:55:17;-1.30;76.00
39655;DHT22;25336;59.944;11.010;2023-11-21T08:57:45;-1.20;76.20
39655;DHT22;25336;59.944;11.010;2023-11-21T09:00:12;-1.20;76.30
39655;DHT22;25336;59.944;11.010;2023-11-21T09:02:41;-1.10;76.40
39655;DHT22;25336;59.944;11.010;2023-11-21T09:05:13;-1.00;76.50
39655;DHT22;25336;59.944;11.010;2023-11-21T09:07:40;-0.10;77.00
39655;DHT22;25336;59.944;11.010;2023-11-21T09:10:07;-0.90;76.40
39655;DHT22;25336;59.944;11.010;2023-11-21T09:12:37;-2.10;75.60
39655;DHT22;25336;59.944;11.010;2023-11-21T09:15:04;-0.80;76.40
39655;DHT22;25336;59.944;11.010;2023-11-21T09:17:31;-0.80;76.20
39655;DHT22;25336;59.944;11.010;2023-11-21T09:19:57;-0.20;76.60
39655;DHT22;25336;59.944;11.010;2023-11-21T09:22:23;0.20;76.60
39655;DHT22;25336;59.944;11.010;2023-11-21T09:24:53;-0.60;76.00
39655;DHT22;25336;59.944;11.010;2023-11-21T09:27:19;-0.60;76.00
39655;DHT22;25336;59.944;11.010;2023-11-21T09:29:47;-0.60;76.00
39655;DHT22;25336;59.944;11.010;2023-11-21T09:32:13;-0.40;76.10
39655;DHT22;25336;59.944;11.010;2023-11-21T09:34:41;-0.50;76.10
39655;DHT22;25336;59.944;11.010;2023-11-21T09:37:07;-0.50;76.20
39655;DHT22;25336;59.944;11.010;2023-11-21T09:39:33;0.40;76.70
39655;DHT22;25336;59.944;11.010;2023-11-21T09:42:10;0.70;76.90
39655;DHT22;25336;59.944;11.010;2023-11-21T09:47:07;0.80;76.80
39655;DHT22;25336;59.944;11.010;2023-11-21T09:49:37;-0.30;76.10
39655;DHT22;25336;59.944;11.010;2023-11-21T09:52:04;-0.30;76.70
39655;DHT22;25336;59.944;11.010;2023-11-21T09:54:32;-0.30;75.80
39655;DHT22;25336;59.944;11.010;2023-11-21T09:56:59;-0.30;75.70
39655;DHT22;25336;59.944;11.010;2023-11-21T09:59:29;-0.20;75.70
39655;DHT22;25336;59.944;11.010;2023-11-21T10:01:57;0.50;76.20
39655;DHT22;25336;59.944;11.010;2023-11-21T10:04:24;0.70;76.30
39655;DHT22;25336;59.944;11.010;2023-11-21T10:06:53;-0.20;75.60
39655;DHT22;25336;59.944;11.010;2023-11-21T10:09:19;-0.20;75.60
39655;DHT22;25336;59.944;11.010;2023-11-21T10:11:47;0.70;76.20
39655;DHT22;25336;59.944;11.010;2023-11-21T10:14:16;0.50;76.10
39655;DHT22;25336;59.944;11.010;2023-11-21T10:16:44;0.60;76.20
39655;DHT22;25336;59.944;11.010;2023-11-21T10:19:13;0.00;75.90
39655;DHT22;25336;59.944;11.010;2023-11-21T10:21:39;0.60;76.30
39655;DHT22;25336;59.944;11.010;2023-11-21T10:24:05;0.50;76.30
39655;DHT22;25336;59.944;11.010;2023-11-21T10:26:32;-0.10;76.00
39655;DHT22;25336;59.944;11.010;2023-11-21T10:29:00;0.30;76.20
39655;DHT22;25336;59.944;11.010;2023-11-21T10:31:33;-0.10;76.00
39655;DHT22;25336;59.944;11.010;2023-11-21T10:34:18;0.00;76.10
39655;DHT22;25336;59.944;11.010;2023-11-21T10:36:45;0.00;76.10
39655;DHT22;25336;59.944;11.010;2023-11-21T10:39:18;0.90;76.50
39655;DHT22;25336;59.944;11.010;2023-11-21T10:41:45;0.10;76.10
39655;DHT22;25336;59.944;11.010;2023-11-21T10:44:17;0.10;76.10
39655;DHT22;25336;59.944;11.010;2023-11-21T10:46:50;0.10;76.00
39655;DHT22;25336;59.944;11.010;2023-11-21T10:49:17;0.60;76.20
39655;DHT22;25336;59.944;11.010;2023-11-21T10:51:44;0.20;75.80
39655;DHT22;25336;59.944;11.010;2023-11-21T10:54:10;0.20;75.80
39655;DHT22;25336;59.944;11.010;2023-11-21T10:56:39;1.00;76.00
39655;DHT22;25336;59.944;11.010;2023-11-21T10:59:10;0.30;75.50
39655;DHT22;25336;59.944;11.010;2023-11-21T11:01:47;0.60;75.70
39655;DHT22;25336;59.944;11.010;2023-11-21T11:04:15;0.30;76.30
39655;DHT22;25336;59.944;11.010;2023-11-21T11:06:44;0.40;75.40
39655;DHT22;25336;59.944;11.010;2023-11-21T11:09:13;0.30;75.30
39655;DHT22;25336;59.944;11.010;2023-11-21T11:11:42;0.40;75.30
39655;DHT22;25336;59.944;11.010;2023-11-21T11:14:11;0.40;75.40
39655;DHT22;25336;59.944;11.010;2023-11-21T11:16:38;0.40;75.40
39655;DHT22;25336;59.944;11.010;2023-11-21T11:19:10;0.40;75.40
39655;DHT22;25336;59.944;11.010;2023-11-21T11:27:28;0.50;75.30
39655;DHT22;25336;59.944;11.010;2023-11-21T11:38:14;0.60;75.30
39655;DHT22;25336;59.944;11.010;2023-11-21T11:40:41;1.20;75.60
39655;DHT22;25336;59.944;11.010;2023-11-21T11:43:10;0.90;75.40
39655;DHT22;25336;59.944;11.010;2023-11-21T11:45:36;0.60;75.10
39655;DHT22;25336;59.944;11.010;2023-11-21T11:48:06;0.60;75.10
39655;DHT22;25336;59.944;11.010;2023-11-21T11:50:32;1.50;75.50
39655;DHT22;25336;59.944;11.010;2023-11-21T11:53:16;0.70;74.90
39655;DHT22;25336;59.944;11.010;2023-11-21T11:55:43;0.70;75.00
39655;DHT22;25336;59.944;11.010;2023-11-21T11:58:09;0.70;75.00
39655;DHT22;25336;59.944;11.010;2023-11-21T12:00:37;0.70;75.00
39655;DHT22;25336;59.944;11.010;2023-11-21T12:03:04;0.70;75.10
39655;DHT22;25336;59.944;11.010;2023-11-21T12:05:34;0.70;75.10
39655;DHT22;25336;59.944;11.010;2023-11-21T12:08:11;0.70;75.00
39655;DHT22;25336;59.944;11.010;2023-11-21T12:10:38;0.80;74.90
39655;DHT22;25336;59.944;11.010;2023-11-21T12:13:10;1.10;75.10
39655;DHT22;25336;59.944;11.010;2023-11-21T12:15:37;0.70;74.80
39655;DHT22;25336;59.944;11.010;2023-11-21T12:18:04;1.50;75.20
39655;DHT22;25336;59.944;11.010;2023-11-21T12:20:31;0.70;74.80
39655;DHT22;25336;59.944;11.010;2023-11-21T12:22:58;0.80;74.80
39655;DHT22;25336;59.944;11.010;2023-11-21T12:25:29;1.50;75.40
39655;DHT22;25336;59.944;11.010;2023-11-21T12:27:55;0.80;75.00
39655;DHT22;25336;59.944;11.010;2023-11-21T12:30:23;0.80;75.00
39655;DHT22;25336;59.944;11.010;2023-11-21T12:32:52;0.80;75.00
39655;DHT22;25336;59.944;11.010;2023-11-21T12:35:19;1.50;75.50
39655;DHT22;25336;59.944;11.010;2023-11-21T12:37:45;0.90;75.20
39655;DHT22;25336;59.944;11.010;2023-11-21T12:40:12;1.60;75.70
39655;DHT22;25336;59.944;11.010;2023-11-21T12:42:45;0.90;75.20
39655;DHT22;25336;59.944;11.010;2023-11-21T12:45:18;1.70;75.70
39655;DHT22;25336;59.944;11.010;2023-11-21T12:50:11;1.00;75.00
39655;DHT22;25336;59.944;11.010;2023-11-21T12:52:44;1.00;74.90
39655;DHT22;25336;59.944;11.010;2023-11-21T12:55:20;1.00;74.90
39655;DHT22;25336;59.944;11.010;2023-11-21T12:57:53;1.70;75.40
39655;DHT22;25336;59.944;11.010;2023-11-21T13:00:40;1.00;74.90
39655;DHT22;25336;59.944;11.010;2023-11-21T13:03:09;1.70;75.30
39655;DHT22;25336;59.944;11.010;2023-11-21T13:05:40;1.70;75.30
39655;DHT22;25336;59.944;11.010;2023-11-21T13:08:11;1.60;75.30
39655;DHT22;25336;59.944;11.010;2023-11-21T13:10:40;1.20;74.90
39655;DHT22;25336;59.944;11.010;2023-11-21T13:13:09;1.20;74.80
39655;DHT22;25336;59.944;11.010;2023-11-21T13:15:39;1.20;74.70
39655;DHT22;25336;59.944;11.010;2023-11-21T13:18:06;2.30;75.30
39655;DHT22;25336;59.944;11.010;2023-11-21T13:20:32;1.30;74.60
39655;DHT22;25336;59.944;11.010;2023-11-21T13:22:58;1.30;74.40
39655;DHT22;25336;59.944;11.010;2023-11-21T13:25:25;1.90;74.60
39655;DHT22;25336;59.944;11.010;2023-11-21T13:27:56;1.30;74.10
39655;DHT22;25336;59.944;11.010;2023-11-21T13:30:22;1.80;74.30
39655;DHT22;25336;59.944;11.010;2023-11-21T13:32:56;1.40;74.00
39655;DHT22;25336;59.944;11.010;2023-11-21T13:35:31;1.30;73.90
39655;DHT22;25336;59.944;11.010;2023-11-21T13:38:08;1.40;73.90
39655;DHT22;25336;59.944;11.010;2023-11-21T13:40:35;1.40;73.90
39655;DHT22;25336;59.944;11.010;2023-11-21T13:43:14;1.40;73.80
39655;DHT22;25336;59.944;11.010;2023-11-21T13:45:41;1.30;73.60
39655;DHT22;25336;59.944;11.010;2023-11-21T13:48:08;2.20;74.10
39655;DHT22;25336;59.944;11.010;2023-11-21T13:50:42;2.20;74.10
39655;DHT22;25336;59.944;11.010;2023-11-21T13:53:30;1.30;73.50
39655;DHT22;25336;59.944;11.010;2023-11-21T13:55:56;2.50;74.30
39655;DHT22;25336;59.944;11.010;2023-11-21T13:58:26;1.80;73.70
39655;DHT22;25336;59.944;11.010;2023-11-21T14:01:10;1.70;73.60
39655;DHT22;25336;59.944;11.010;2023-11-21T14:04:03;2.10;73.70
39655;DHT22;25336;59.944;11.010;2023-11-21T14:06:43;1.30;73.20
39655;DHT22;25336;59.944;11.010;2023-11-21T14:09:18;1.20;73.20
39655;DHT22;25336;59.944;11.010;2023-11-21T14:12:01;1.70;73.60
39655;DHT22;25336;59.944;11.010;2023-11-21T14:14:32;1.20;73.30
39655;DHT22;25336;59.944;11.010;2023-11-21T14:16:57;1.70;73.70
39655;DHT22;25336;59.944;11.010;2023-11-21T14:19:24;1.20;73.40
39655;DHT22;25336;59.944;11.010;2023-11-21T14:21:55;1.40;73.60
39655;DHT22;25336;59.944;11.010;2023-11-21T14:24:21;2.00;74.10
39655;DHT22;25336;59.944;11.010;2023-11-21T14:26:49;1.20;73.50
39655;DHT22;25336;59.944;11.010;2023-11-21T14:29:18;1.20;73.50
39655;DHT22;25336;59.944;11.010;2023-11-21T14:31:48;1.20;73.60
39655;DHT22;25336;59.944;11.010;2023-11-21T14:34:17;1.90;74.00
39655;DHT22;25336;59.944;11.010;2023-11-21T14:36:43;1.50;73.70
39655;DHT22;25336;59.944;11.010;2023-11-21T14:39:10;1.30;73.60
39655;DHT22;25336;59.944;11.010;2023-11-21T14:41:48;1.30;73.60
39655;DHT22;25336;59.944;11.010;2023-11-21T14:44:14;1.30;73.50
39655;DHT22;25336;59.944;11.010;2023-11-21T14:46:41;1.30;73.50
39655;DHT22;25336;59.944;11.010;2023-11-21T14:49:12;2.20;74.00
39655;DHT22;25336;59.944;11.010;2023-11-21T14:51:52;1.30;73.40
39655;DHT22;25336;59.944;11.010;2023-11-21T14:54:33;1.30;73.30
39655;DHT22;25336;59.944;11.010;2023-11-21T14:57:05;1.60;73.40
39655;DHT22;25336;59.944;11.010;2023-11-21T14:59:36;1.90;73.50
39655;DHT22;25336;59.944;11.010;2023-11-21T15:02:01;1.70;73.30
39655;DHT22;25336;59.944;11.010;2023-11-21T15:04:41;1.30;73.00
39655;DHT22;25336;59.944;11.010;2023-11-21T15:07:08;1.20;73.00
39655;DHT22;25336;59.944;11.010;2023-11-21T15:09:34;1.20;73.00
39655;DHT22;25336;59.944;11.010;2023-11-21T15:12:00;1.50;73.30
39655;DHT22;25336;59.944;11.010;2023-11-21T15:14:49;1.70;73.60
39655;DHT22;25336;59.944;11.010;2023-11-21T15:17:18;1.30;73.40
39655;DHT22;25336;59.944;11.010;2023-11-21T15:19:52;2.20;74.10
39655;DHT22;25336;59.944;11.010;2023-11-21T15:22:18;1.20;73.60
39655;DHT22;25336;59.944;11.010;2023-11-21T15:24:44;1.90;74.00
39655;DHT22;25336;59.944;11.010;2023-11-21T15:27:12;1.10;73.50
39655;DHT22;25336;59.944;11.010;2023-11-21T15:29:39;1.10;73.50
39655;DHT22;25336;59.944;11.010;2023-11-21T15:32:06;1.80;73.90
39655;DHT22;25336;59.944;11.010;2023-11-21T15:34:33;1.10;73.50
39655;DHT22;25336;59.944;11.010;2023-11-21T15:36:59;1.20;73.60
39655;DHT22;25336;59.944;11.010;2023-11-21T15:39:25;1.20;73.60
39655;DHT22;25336;59.944;11.010;2023-11-21T15:41:56;1.20;73.60
39655;DHT22;25336;59.944;11.010;2023-11-21T15:44:22;1.70;74.00
39655;DHT22;25336;59.944;11.010;2023-11-21T15:46:49;1.20;73.60